FCPP

Details ICAO FCPP (PNR)
Name POINTE NOIRE
Region Republic of the Congo
Timezone Africa/Brazzaville (UTC+1.0)
Plans Departing 38
Arriving 54
Stats Elevation 55 ft / 17 m (AMSL)
Location -4.816026° 11.886596°
Runways 1
Magnetic Variation 2.480° W
Sunrise 2018-05-27 05:14:59 UTC / 2018-05-27 06:14:59 Local
Sunset 2018-05-27 17:07:07 UTC / 2018-05-27 18:07:07 Local
Advertisement - Login to hide

Runways

ID Width Length Bearing (true) Bearing (mag) Surface Threshold Offset Overrun Length
17 148 ft / 45 m 8,577 ft / 2,614 m 166.09° 168.57° Asphalt 0 ft / 0 m 328 ft / 100 m
35 148 ft / 45 m 8,577 ft / 2,614 m 346.09° 348.57° Asphalt 0 ft / 0 m 328 ft / 100 m

Map

Weather


0- 5 10 15 20 25 30 35+ Temperature / ° C

Clouds and Precipitation
Forecast for 2018-05-27 18:00 UTC. Updated 32 minutes ago

Ground ~20,000 ft ~40,000 ft Winds

METAR

FCPP 271700Z 17002KT 9999 SCT010 OVC023 26/23 Q1011 NOSIG

TAF

TAF AMD FCPP 271142Z 2712/2812 18008KT 9000 SCT015 BKN026 BECMG 2722/2801 3000 BR BECMG 2806/2808 8000 NSW

Frequencies

Tower 118.30 MHz TWR
Approach 118.30 MHz APP
Tower 124.30 MHz TWR
Approach 124.30 MHz APP
Warning: Do not use this data for real-world aviation or navigation. No guarantee of current accuracy is given.